createdAt,value
2022-08-17T00:00:43.901Z,6.67
2022-08-17T00:03:14.455Z,5.50
2022-08-17T00:05:45.514Z,6.30
2022-08-17T00:08:15.741Z,6.23
2022-08-17T00:10:45.762Z,6.30
2022-08-17T00:13:18.821Z,5.37
2022-08-17T00:15:48.410Z,5.70
2022-08-17T00:19:01.410Z,6.20
2022-08-17T00:21:10.263Z,7.40
2022-08-17T00:23:44.368Z,6.70
2022-08-17T00:26:34.672Z,5.53
2022-08-17T00:29:09.393Z,5.80
2022-08-17T00:31:48.738Z,6.70
2022-08-17T00:34:17.921Z,6.23
2022-08-17T00:36:46.603Z,6.40
2022-08-17T00:39:15.299Z,6.00
2022-08-17T00:41:44.268Z,6.00
2022-08-17T00:44:15.527Z,6.30
2022-08-17T00:46:45.152Z,6.60
2022-08-17T00:49:14.644Z,6.13
2022-08-17T00:51:45.626Z,6.00
2022-08-17T00:54:21.137Z,7.03
2022-08-17T00:56:52.554Z,7.03
2022-08-17T00:59:24.749Z,6.87
2022-08-17T01:01:53.594Z,6.03
2022-08-17T01:04:23.569Z,7.00
2022-08-17T01:06:54.296Z,6.60
2022-08-17T01:09:23.055Z,6.50
2022-08-17T01:11:52.157Z,6.00
2022-08-17T01:14:23.614Z,5.83
2022-08-17T01:16:54.902Z,6.40
2022-08-17T01:19:29.205Z,5.73
2022-08-17T01:22:01.306Z,5.63
2022-08-17T01:24:31.907Z,6.20
2022-08-17T01:27:02.978Z,5.90
2022-08-17T01:29:40.749Z,6.97
2022-08-17T01:32:09.638Z,6.20
2022-08-17T01:34:43.023Z,6.40
2022-08-17T01:37:13.648Z,6.57
2022-08-17T01:39:46.508Z,6.33
2022-08-17T01:42:22.645Z,7.00
2022-08-17T01:44:56.255Z,6.50
2022-08-17T01:47:25.025Z,6.30
2022-08-17T01:49:53.696Z,7.00
2022-08-17T01:52:23.740Z,6.50
2022-08-17T01:54:54.030Z,5.80
2022-08-17T01:57:22.783Z,6.07
2022-08-17T01:59:51.469Z,5.70
2022-08-17T02:02:30.447Z,5.93
2022-08-17T02:05:00.433Z,6.20
2022-08-17T02:07:29.283Z,6.57
2022-08-17T02:09:59.587Z,5.67
2022-08-17T02:12:38.187Z,6.40
2022-08-17T02:15:10.399Z,6.63
2022-08-17T02:17:40.488Z,6.83
2022-08-17T02:20:10.597Z,7.00
2022-08-17T02:22:41.430Z,6.37
2022-08-17T02:25:13.466Z,5.90
2022-08-17T02:27:42.123Z,6.67
2022-08-17T02:30:49.919Z,5.90
2022-08-17T02:33:04.291Z,6.87
2022-08-17T02:35:38.429Z,6.40
2022-08-17T02:38:07.834Z,6.93
2022-08-17T02:40:40.626Z,7.00
2022-08-17T02:43:10.322Z,6.17
2022-08-17T02:45:39.589Z,5.93
2022-08-17T02:48:08.665Z,6.37
2022-08-17T02:50:37.961Z,5.67
2022-08-17T02:53:06.889Z,6.07
2022-08-17T02:55:40.104Z,6.03
2022-08-17T02:58:10.452Z,6.43
2022-08-17T03:00:41.994Z,6.20
2022-08-17T03:03:13.520Z,6.60
2022-08-17T03:05:42.136Z,6.17
2022-08-17T03:08:13.242Z,6.33
2022-08-17T03:10:43.951Z,6.70
2022-08-17T03:13:14.476Z,6.37
2022-08-17T03:15:45.743Z,6.07
2022-08-17T03:18:19.214Z,6.20
2022-08-17T03:20:54.476Z,6.60
2022-08-17T03:23:24.044Z,6.97
2022-08-17T03:25:56.294Z,7.03
2022-08-17T03:28:25.636Z,6.60
2022-08-17T03:30:54.360Z,6.70
2022-08-17T03:33:23.384Z,6.30
2022-08-17T03:35:52.656Z,7.10
2022-08-17T03:38:21.976Z,6.20
2022-08-17T03:40:57.892Z,6.43
2022-08-17T03:43:31.276Z,7.03
2022-08-17T03:46:33.929Z,7.00
2022-08-17T03:49:22.778Z,7.00
2022-08-17T03:52:09.050Z,7.07
2022-08-17T03:54:55.178Z,6.83
2022-08-17T03:57:23.936Z,6.77
2022-08-17T03:59:54.418Z,6.77
2022-08-17T04:02:25.420Z,6.80
2022-08-17T04:04:54.205Z,6.83
2022-08-17T04:07:25.741Z,6.63
2022-08-17T04:09:54.481Z,7.77
2022-08-17T04:12:24.951Z,6.93
2022-08-17T04:14:55.351Z,7.03
2022-08-17T04:17:26.264Z,6.63
2022-08-17T04:19:55.331Z,7.27
2022-08-17T04:22:31.094Z,6.67
2022-08-17T04:25:08.067Z,6.80
2022-08-17T04:27:37.253Z,7.23
2022-08-17T04:30:08.554Z,6.60
2022-08-17T04:33:04.215Z,6.90
2022-08-17T04:35:37.759Z,7.70
2022-08-17T04:38:06.688Z,6.60
2022-08-17T04:40:53.621Z,7.30
2022-08-17T04:43:24.722Z,7.70
2022-08-17T04:45:57.424Z,7.40
2022-08-17T04:48:35.695Z,7.47
2022-08-17T04:51:09.576Z,6.77
2022-08-17T04:53:40.021Z,6.90
2022-08-17T04:56:09.143Z,6.33
2022-08-17T04:58:44.834Z,6.70
2022-08-17T05:01:15.217Z,7.10
2022-08-17T05:03:44.472Z,7.80
2022-08-17T05:06:13.212Z,7.53
2022-08-17T05:08:41.999Z,7.70
2022-08-17T05:11:10.670Z,7.70
2022-08-17T05:13:39.330Z,7.13
2022-08-17T05:16:09.974Z,8.57
2022-08-17T05:18:39.993Z,8.00
2022-08-17T05:21:08.769Z,7.30
2022-08-17T05:23:42.616Z,8.27
2022-08-17T05:26:25.937Z,7.30
2022-08-17T05:28:59.684Z,7.97
2022-08-17T05:31:30.897Z,7.30
2022-08-17T05:34:01.164Z,8.10
2022-08-17T05:36:37.861Z,7.93
2022-08-17T05:39:17.033Z,7.37
2022-08-17T05:41:47.880Z,7.83
2022-08-17T05:44:17.392Z,7.47
2022-08-17T05:46:49.962Z,8.60
2022-08-17T05:49:27.060Z,8.20
2022-08-17T05:52:06.829Z,7.70
2022-08-17T05:54:42.398Z,7.83
2022-08-17T05:57:25.745Z,8.63
2022-08-17T06:00:00.263Z,8.27
2022-08-17T06:02:45.555Z,7.90
2022-08-17T06:05:34.933Z,8.13
2022-08-17T06:08:12.104Z,7.47
2022-08-17T06:10:46.453Z,7.73
2022-08-17T06:13:21.873Z,8.60
2022-08-17T06:15:56.400Z,7.53
2022-08-17T06:18:27.980Z,7.70
2022-08-17T06:21:02.497Z,7.60
2022-08-17T06:23:38.213Z,7.50
2022-08-17T06:26:12.030Z,7.70
2022-08-17T06:28:46.175Z,7.80
2022-08-17T06:31:19.976Z,6.70
2022-08-17T06:33:49.459Z,6.87
2022-08-17T06:36:40.519Z,7.33
2022-08-17T06:39:26.538Z,6.97
2022-08-17T06:42:02.340Z,7.10
2022-08-17T06:44:43.336Z,6.67
2022-08-17T06:47:28.531Z,6.63
2022-08-17T06:50:07.150Z,6.43
2022-08-17T06:52:47.573Z,6.97
2022-08-17T06:55:21.278Z,6.27
2022-08-17T06:57:55.625Z,5.77
2022-08-17T07:00:28.193Z,6.50
2022-08-17T07:02:59.892Z,6.70
2022-08-17T07:05:34.069Z,6.10
2022-08-17T07:08:09.238Z,7.47
2022-08-17T07:10:42.624Z,6.50
2022-08-17T07:13:26.557Z,6.87
2022-08-17T07:16:03.350Z,6.33
2022-08-17T07:18:33.232Z,6.17
2022-08-17T07:21:08.648Z,6.43
2022-08-17T07:23:50.693Z,6.00
2022-08-17T07:26:19.547Z,6.20
2022-08-17T07:28:48.563Z,7.30
2022-08-17T07:31:17.614Z,5.97
2022-08-17T07:34:01.028Z,6.03
2022-08-17T07:36:33.766Z,6.80
2022-08-17T07:39:05.031Z,5.77
2022-08-17T07:41:57.878Z,5.93
2022-08-17T07:44:28.198Z,6.30
2022-08-17T07:47:15.088Z,5.97
2022-08-17T07:49:46.811Z,5.80
2022-08-17T07:52:48.145Z,4.93
2022-08-17T07:55:32.695Z,5.50
2022-08-17T07:58:02.020Z,4.80
2022-08-17T08:00:33.018Z,5.00
2022-08-17T08:03:05.974Z,4.50
2022-08-17T08:05:49.862Z,5.00
2022-08-17T08:08:26.002Z,5.20
2022-08-17T08:11:12.150Z,4.87
2022-08-17T08:13:45.002Z,4.50
2022-08-17T08:16:20.691Z,4.90
2022-08-17T08:18:56.067Z,5.10
2022-08-17T08:21:33.036Z,4.93
2022-08-17T08:24:13.481Z,5.47
2022-08-17T08:26:47.517Z,4.90
2022-08-17T08:29:28.148Z,4.20
2022-08-17T08:32:04.633Z,5.17
2022-08-17T08:34:53.467Z,5.33
2022-08-17T08:37:42.984Z,5.17
2022-08-17T08:40:25.164Z,4.60
2022-08-17T08:43:03.890Z,5.07
2022-08-17T08:45:39.442Z,4.30
2022-08-17T08:48:46.095Z,4.63
2022-08-17T08:51:14.398Z,4.70
2022-08-17T08:53:50.188Z,5.20
2022-08-17T08:56:49.704Z,5.07
2022-08-17T08:59:36.071Z,5.40
2022-08-17T09:02:16.834Z,5.67
2022-08-17T09:05:14.045Z,5.80
2022-08-17T09:07:54.753Z,5.90
2022-08-17T09:10:29.886Z,6.77
2022-08-17T09:13:10.062Z,5.77
2022-08-17T09:15:45.873Z,5.23
2022-08-17T09:18:59.983Z,5.10
2022-08-17T09:21:12.153Z,5.43
2022-08-17T09:23:45.847Z,5.57
2022-08-17T09:26:22.943Z,6.17
2022-08-17T09:28:53.419Z,6.17
2022-08-17T09:31:32.767Z,6.10
2022-08-17T09:34:04.274Z,5.30
2022-08-17T09:36:37.635Z,5.67
2022-08-17T09:39:09.434Z,4.90
2022-08-17T09:41:48.673Z,5.00
2022-08-17T09:44:28.132Z,5.47
2022-08-17T09:47:11.507Z,4.83
2022-08-17T09:49:46.903Z,5.10
2022-08-17T09:52:21.124Z,5.57
2022-08-17T09:54:51.845Z,4.60
2022-08-17T09:57:32.309Z,5.20
2022-08-17T10:00:16.299Z,5.30
2022-08-17T10:02:58.839Z,5.50
2022-08-17T10:05:34.320Z,6.10
2022-08-17T10:08:08.639Z,5.70
2022-08-17T10:10:41.857Z,5.30
2022-08-17T10:13:18.294Z,5.57
2022-08-17T10:15:51.355Z,4.80
2022-08-17T10:18:34.291Z,4.57
2022-08-17T10:21:23.802Z,5.17
2022-08-17T10:24:13.442Z,5.63
2022-08-17T10:26:56.574Z,6.23
2022-08-17T10:29:29.952Z,5.27
2022-08-17T10:32:16.181Z,4.53
2022-08-17T10:35:01.077Z,5.13
2022-08-17T10:38:06.590Z,5.60
2022-08-17T10:40:39.416Z,5.70
2022-08-17T10:43:20.900Z,5.33
2022-08-17T10:46:09.237Z,5.10
2022-08-17T10:48:44.603Z,5.80
2022-08-17T10:51:37.905Z,5.10
2022-08-17T10:54:38.457Z,4.80
2022-08-17T10:57:38.992Z,5.20
2022-08-17T11:00:12.962Z,5.67
2022-08-17T11:02:49.467Z,4.90
2022-08-17T11:05:34.536Z,5.17
2022-08-17T11:08:29.957Z,5.20
2022-08-17T11:11:19.798Z,4.60
2022-08-17T11:13:54.536Z,4.50
2022-08-17T11:16:38.175Z,4.60
2022-08-17T11:19:29.910Z,5.40
2022-08-17T11:22:34.603Z,5.43
2022-08-17T11:25:14.406Z,4.73
2022-08-17T11:27:45.511Z,4.10
2022-08-17T11:30:16.460Z,3.90
2022-08-17T11:32:54.707Z,3.77
2022-08-17T11:35:35.418Z,3.63
2022-08-17T11:38:16.038Z,3.23
2022-08-17T11:41:11.637Z,3.30
2022-08-17T11:44:02.885Z,3.40
2022-08-17T11:46:59.182Z,3.30
2022-08-17T11:50:01.363Z,3.57
2022-08-17T11:52:40.030Z,3.00
2022-08-17T11:55:33.893Z,3.10
2022-08-17T11:58:02.735Z,3.33
2022-08-17T12:00:56.581Z,3.57
2022-08-17T12:03:55.693Z,2.73
2022-08-17T12:06:46.766Z,2.80
2022-08-17T12:09:19.432Z,2.90
2022-08-17T12:12:11.414Z,3.00
2022-08-17T12:17:41.613Z,3.07
2022-08-17T12:20:17.653Z,2.90
2022-08-17T12:22:56.482Z,2.93
2022-08-17T12:25:32.825Z,3.20
2022-08-17T12:28:06.256Z,3.20
2022-08-17T12:30:37.365Z,3.20
2022-08-17T12:33:27.943Z,2.83
2022-08-17T12:36:03.782Z,3.00
2022-08-17T12:38:34.428Z,3.50
2022-08-17T12:41:25.519Z,3.50
2022-08-17T12:44:00.419Z,3.40
2022-08-17T12:46:29.607Z,3.40
2022-08-17T12:49:24.004Z,3.30
2022-08-17T12:52:01.872Z,2.53
2022-08-17T12:54:35.801Z,2.93
2022-08-17T12:57:08.688Z,3.57
2022-08-17T12:59:42.036Z,4.17
2022-08-17T13:02:29.365Z,3.47
2022-08-17T13:05:01.842Z,3.57
2022-08-17T13:07:35.173Z,3.30
2022-08-17T13:10:05.515Z,3.60
2022-08-17T13:12:35.972Z,2.83
2022-08-17T13:15:07.897Z,3.60
2022-08-17T13:17:37.826Z,3.33
2022-08-17T13:20:15.787Z,3.20
2022-08-17T13:22:45.077Z,3.00
2022-08-17T13:25:17.022Z,2.90
2022-08-17T13:27:54.214Z,2.80
2022-08-17T13:30:28.012Z,3.23
2022-08-17T13:32:57.976Z,3.23
2022-08-17T13:35:46.505Z,3.43
2022-08-17T13:38:36.666Z,2.87
2022-08-17T13:41:07.466Z,3.60
2022-08-17T13:43:44.607Z,2.83
2022-08-17T13:46:19.793Z,2.80
2022-08-17T13:48:58.734Z,2.97
2022-08-17T13:51:35.675Z,3.07
2022-08-17T13:54:19.131Z,2.87
2022-08-17T13:56:55.880Z,3.57
2022-08-17T13:59:52.466Z,3.40
2022-08-17T14:02:21.558Z,3.70
2022-08-17T14:04:50.478Z,2.97
2022-08-17T14:07:32.383Z,3.60
2022-08-17T14:10:04.615Z,2.70
2022-08-17T14:12:34.631Z,3.40
2022-08-17T14:15:03.707Z,2.97
2022-08-17T14:17:37.918Z,3.30
2022-08-17T14:20:10.519Z,3.60
2022-08-17T14:22:43.736Z,3.57
2022-08-17T14:25:14.155Z,3.30
2022-08-17T14:27:52.214Z,5.37
2022-08-17T14:30:24.706Z,3.90
2022-08-17T14:32:54.953Z,3.40
2022-08-17T14:35:24.401Z,3.10
2022-08-17T14:37:54.764Z,3.53
2022-08-17T14:40:25.366Z,4.90
2022-08-17T14:42:55.916Z,3.53
2022-08-17T14:45:29.653Z,2.70
2022-08-17T14:48:05.447Z,2.60
2022-08-17T14:50:35.519Z,2.63
2022-08-17T14:53:07.762Z,3.37
2022-08-17T14:55:39.776Z,3.07
2022-08-17T14:58:09.542Z,3.33
2022-08-17T15:00:40.486Z,3.23
2022-08-17T15:03:09.374Z,3.43
2022-08-17T15:05:39.296Z,3.03
2022-08-17T15:08:09.607Z,3.13
2022-08-17T15:10:39.036Z,3.10
2022-08-17T15:13:15.728Z,2.87
2022-08-17T15:15:44.857Z,3.33
2022-08-17T15:18:13.680Z,2.60
2022-08-17T15:20:43.399Z,3.40
2022-08-17T15:23:15.453Z,3.30
2022-08-17T15:25:44.765Z,3.70
2022-08-17T15:28:13.526Z,3.60
2022-08-17T15:30:44.784Z,3.80
2022-08-17T15:33:15.464Z,3.60
2022-08-17T15:35:45.573Z,3.40
2022-08-17T15:38:15.732Z,3.53
2022-08-17T15:40:47.418Z,3.97
2022-08-17T15:43:27.035Z,3.13
2022-08-17T15:46:00.521Z,3.57
2022-08-17T15:48:41.347Z,3.20
2022-08-17T15:51:20.819Z,3.50
2022-08-17T15:53:53.374Z,3.20
2022-08-17T15:56:22.612Z,3.50
2022-08-17T15:58:51.421Z,3.60
2022-08-17T16:02:15.385Z,3.17
2022-08-17T16:04:30.293Z,3.60
2022-08-17T16:07:00.286Z,3.53
2022-08-17T16:09:30.849Z,3.67
2022-08-17T16:12:09.707Z,3.87
2022-08-17T16:14:38.460Z,3.83
2022-08-17T16:17:39.245Z,3.60
2022-08-17T16:19:58.590Z,3.70
2022-08-17T16:22:32.579Z,3.90
2022-08-17T16:25:03.965Z,3.53
2022-08-17T16:27:32.852Z,3.90
2022-08-17T16:30:01.991Z,3.40
2022-08-17T16:32:32.949Z,3.90
2022-08-17T16:35:03.131Z,4.17
2022-08-17T16:37:32.021Z,3.97
2022-08-17T16:40:07.767Z,3.70
2022-08-17T16:42:38.646Z,3.13
2022-08-17T16:45:10.257Z,3.33
2022-08-17T16:47:39.124Z,3.43
2022-08-17T16:50:09.565Z,3.00
2022-08-17T16:52:38.307Z,3.50
2022-08-17T16:55:13.350Z,3.40
2022-08-17T16:57:50.026Z,3.57
2022-08-17T17:00:20.892Z,4.03
2022-08-17T17:02:50.732Z,2.80
2022-08-17T17:05:29.567Z,3.53
2022-08-17T17:08:03.209Z,3.33
2022-08-17T17:10:38.783Z,3.67
2022-08-17T17:13:12.775Z,3.83
2022-08-17T17:15:51.737Z,4.13
2022-08-17T17:18:21.799Z,3.37
2022-08-17T17:20:54.879Z,3.70
2022-08-17T17:23:36.523Z,3.63
2022-08-17T17:26:27.251Z,3.50
2022-08-17T17:29:07.978Z,3.30
2022-08-17T17:31:42.629Z,3.87
2022-08-17T17:34:13.709Z,4.13
2022-08-17T17:36:47.037Z,4.17
2022-08-17T17:39:18.714Z,4.30
2022-08-17T17:41:53.398Z,4.77
2022-08-17T17:44:26.484Z,4.33
2022-08-17T17:46:59.726Z,4.30
2022-08-17T17:49:31.723Z,4.93
2022-08-17T17:52:10.136Z,4.93
2022-08-17T17:55:00.188Z,4.37
2022-08-17T17:57:39.528Z,8.67
2022-08-17T18:00:12.135Z,8.77
2022-08-17T18:02:52.939Z,5.40
2022-08-17T18:05:36.195Z,6.93
2022-08-17T18:08:13.141Z,7.47
2022-08-17T18:10:49.021Z,8.30
2022-08-17T18:13:25.946Z,5.63
2022-08-17T18:16:00.659Z,4.40
2022-08-17T18:18:38.703Z,4.13
2022-08-17T18:21:16.565Z,4.23
2022-08-17T18:23:52.326Z,4.07
2022-08-17T18:26:45.066Z,3.73
2022-08-17T18:29:41.137Z,3.87
2022-08-17T18:32:27.747Z,4.73
2022-08-17T18:34:59.491Z,4.20
2022-08-17T18:37:34.960Z,4.33
2022-08-17T18:40:25.257Z,4.70
2022-08-17T18:43:00.308Z,4.90
2022-08-17T18:45:36.026Z,4.93
2022-08-17T18:48:11.046Z,4.03
2022-08-17T18:50:42.634Z,4.00
2022-08-17T18:53:26.666Z,4.03
2022-08-17T18:56:17.513Z,4.20
2022-08-17T18:58:54.171Z,3.67
2022-08-17T19:01:42.042Z,3.83
2022-08-17T19:04:34.077Z,3.90
2022-08-17T19:07:28.180Z,4.20
2022-08-17T19:10:00.649Z,3.72
2022-08-17T19:12:34.314Z,4.23
2022-08-17T19:15:03.976Z,4.50
2022-08-17T19:17:43.227Z,3.93
2022-08-17T19:20:17.538Z,5.00
2022-08-17T19:22:58.880Z,5.40
2022-08-17T19:25:30.769Z,4.90
2022-08-17T19:28:15.336Z,5.53
2022-08-17T19:30:56.090Z,3.87
2022-08-17T19:33:27.320Z,4.57
2022-08-17T19:36:04.436Z,5.00
2022-08-17T19:38:48.328Z,5.00
2022-08-17T19:41:23.068Z,5.43
2022-08-17T19:44:09.891Z,5.57
2022-08-17T19:46:49.987Z,5.20
2022-08-17T19:49:33.426Z,5.80
2022-08-17T19:52:22.181Z,6.33
2022-08-17T19:54:55.598Z,5.27
2022-08-17T19:57:35.776Z,5.80
2022-08-17T20:00:09.571Z,5.47
2022-08-17T20:02:43.865Z,5.07
2022-08-17T20:05:16.574Z,5.93
2022-08-17T20:07:49.162Z,5.77
2022-08-17T20:10:25.261Z,5.50
2022-08-17T20:12:54.760Z,5.50
2022-08-17T20:15:27.299Z,5.33
2022-08-17T20:17:59.025Z,5.97
2022-08-17T20:20:34.920Z,6.27
2022-08-17T20:23:10.997Z,5.70
2022-08-17T20:25:46.334Z,5.83
2022-08-17T20:28:23.699Z,6.30
2022-08-17T20:30:53.227Z,4.90
2022-08-17T20:33:27.610Z,5.60
2022-08-17T20:36:13.828Z,5.90
2022-08-17T20:38:45.263Z,5.33
2022-08-17T20:41:20.726Z,5.80
2022-08-17T20:44:04.448Z,6.20
2022-08-17T20:46:53.233Z,5.60
2022-08-17T20:49:28.249Z,7.03
2022-08-17T20:52:02.566Z,7.50
2022-08-17T20:54:44.873Z,12.90
2022-08-17T20:57:47.270Z,16.07
2022-08-17T21:00:44.702Z,16.00
2022-08-17T21:03:52.443Z,12.03
2022-08-17T21:06:24.337Z,9.50
2022-08-17T21:12:05.795Z,8.77
2022-08-17T21:14:57.866Z,7.97
2022-08-17T21:17:41.790Z,7.77
2022-08-17T21:20:23.427Z,7.10
2022-08-17T21:23:18.636Z,7.57
2022-08-17T21:26:13.691Z,8.30
2022-08-17T21:29:00.265Z,7.90
2022-08-17T21:31:34.611Z,8.10
2022-08-17T21:34:30.717Z,8.00
2022-08-17T21:37:30.620Z,8.23
2022-08-17T21:40:01.614Z,8.30
2022-08-17T21:42:32.073Z,7.43
2022-08-17T21:45:10.846Z,7.90
2022-08-17T21:47:47.484Z,8.17
2022-08-17T21:50:19.931Z,7.77
2022-08-17T21:52:49.550Z,8.10
2022-08-17T21:55:28.059Z,7.13
2022-08-17T21:58:13.907Z,7.13
2022-08-17T22:00:45.134Z,7.73
2022-08-17T22:03:23.867Z,7.07
2022-08-17T22:05:52.535Z,7.27
2022-08-17T22:08:25.131Z,6.43
2022-08-17T22:11:02.297Z,6.40
2022-08-17T22:13:30.921Z,5.53
2022-08-17T22:16:15.476Z,5.20
2022-08-17T22:18:57.640Z,5.10
2022-08-17T22:21:26.897Z,5.37
2022-08-17T22:24:06.967Z,5.50
2022-08-17T22:27:02.628Z,4.90
2022-08-17T22:29:56.922Z,5.07
2022-08-17T22:32:43.658Z,5.50
2022-08-17T22:35:39.158Z,5.40
2022-08-17T22:38:30.955Z,4.90
2022-08-17T22:41:37.525Z,5.20
2022-08-17T22:44:23.283Z,5.27
2022-08-17T22:46:56.476Z,4.93
2022-08-17T22:49:29.404Z,5.63
2022-08-17T22:52:08.721Z,5.40
2022-08-17T22:54:54.821Z,6.03
2022-08-17T22:57:42.095Z,5.60
2022-08-17T23:00:29.689Z,5.93
2022-08-17T23:03:18.915Z,5.93
2022-08-17T23:05:51.295Z,6.13
2022-08-17T23:08:21.359Z,6.30
2022-08-17T23:10:50.247Z,5.60
2022-08-17T23:13:21.195Z,6.00
2022-08-17T23:15:51.060Z,6.53
2022-08-17T23:18:19.721Z,6.33
2022-08-17T23:20:49.710Z,5.87
2022-08-17T23:23:23.384Z,6.80
2022-08-17T23:25:52.411Z,6.80
2022-08-17T23:28:21.798Z,7.00
2022-08-17T23:30:50.846Z,7.57
2022-08-17T23:33:21.564Z,6.77
2022-08-17T23:35:51.826Z,7.67
2022-08-17T23:38:20.477Z,7.40
2022-08-17T23:40:49.193Z,8.40
2022-08-17T23:43:25.279Z,7.43
2022-08-17T23:45:57.961Z,8.60
2022-08-17T23:48:35.159Z,7.73
2022-08-17T23:51:09.729Z,7.47
2022-08-17T23:53:41.752Z,7.60
2022-08-17T23:56:11.669Z,7.80
2022-08-17T23:58:42.015Z,7.17
